Back to Top

Language: 

My Weather Underground Personal Weather Station Historical Data with Graphs...

Delerius Weather Station Historical Data
Daily Summary for December 21, 2017 Units:  English    Metric   Both
« Previous Day
Next Day »
Daily Weekly Monthly Yearly Custom
  High: Low: Average:
Temperature: 50.9 °F 45.7 °F 48.4 °F
Dew Point: 49.5 °F 44.3 °F 46.9 °F
Humidity: 97 % 91 % 95 %
Wind Speed: 9.0 mph 0.0 mph 2 mph
Wind Gust: 13.0 mph - -
Wind:- - West
Pressure: 30.54 in 30.48 in -
Precipitation: 0.01 in    
Historical Graphs
 
 
Tabular Data for December 21, 2017
Time Temperature Dew Point Pressure Wind Wind Speed Wind Gust Humidity Rainfall Rate (Hourly) solar Conditions
00:03 48.4 °F 45.9 °F 30.54 in NE 1.0 mph 2.0 mph 91 % 0.00 in 0 W/m2
00:05 48.4 °F 45.9 °F 30.54 in NE 1.0 mph 2.0 mph 91 % 0.00 in 0 W/m2
00:10 48.4 °F 46.2 °F 30.54 in Calm     92 % 0.00 in 0 W/m2
00:11 48.4 °F 46.2 °F 30.54 in Calm     92 % 0.00 in 0 W/m2
00:14 48.2 °F 45.7 °F 30.54 in Calm     91 % 0.00 in 0 W/m2
00:16 48.2 °F 45.7 °F 30.54 in Calm     91 % 0.00 in 0 W/m2
00:21 48.2 °F 46.0 °F 30.54 in Calm     92 % 0.00 in 0 W/m2
00:22 48.2 °F 46.0 °F 30.54 in Calm     92 % 0.00 in 0 W/m2
00:24 48.2 °F 46.0 °F 30.54 in Calm     92 % 0.00 in 0 W/m2
00:27 48.4 °F 46.2 °F 30.54 in Calm     92 % 0.00 in 0 W/m2
00:32 48.2 °F 46.0 °F 30.54 in Calm     92 % 0.00 in 0 W/m2
00:33 48.2 °F 46.0 °F 30.54 in Calm     92 % 0.00 in 0 W/m2
00:37 48.0 °F 45.5 °F 30.53 in Calm     91 % 0.00 in 0 W/m2
00:40 48.0 °F 45.8 °F 30.53 in Calm     92 % 0.00 in 0 W/m2
00:45 48.0 °F 45.8 °F 30.53 in Calm     92 % 0.00 in 0 W/m2
00:47 48.0 °F 45.8 °F 30.53 in Calm     92 % 0.00 in 0 W/m2
00:50 48.0 °F 45.8 °F 30.53 in Calm     92 % 0.00 in 0 W/m2
00:52 48.0 °F 45.8 °F 30.53 in Calm   1.0 mph 92 % 0.00 in 0 W/m2
00:57 47.8 °F 45.3 °F 30.53 in Calm     91 % 0.00 in 0 W/m2
00:58 47.8 °F 45.3 °F 30.53 in Calm     91 % 0.00 in 0 W/m2
01:03 47.7 °F 45.5 °F 30.54 in Calm     92 % 0.00 in 0 W/m2
01:05 47.7 °F 45.5 °F 30.53 in Calm     92 % 0.00 in 0 W/m2
01:11 47.5 °F 45.3 °F 30.54 in NE 1.0 mph 2.0 mph 92 % 0.00 in 0 W/m2
01:16 47.3 °F 45.1 °F 30.54 in Calm     92 % 0.00 in 0 W/m2
01:17 47.3 °F 45.1 °F 30.54 in NE 1.0 mph 2.0 mph 92 % 0.00 in 0 W/m2
01:21 47.1 °F 44.9 °F 30.54 in Calm   1.0 mph 92 % 0.00 in 0 W/m2
01:26 47.1 °F 44.9 °F 30.54 in NE 2.0 mph 4.0 mph 92 % 0.00 in 0 W/m2
01:27 47.1 °F 44.9 °F 30.54 in NE 2.0 mph 4.0 mph 92 % 0.00 in 0 W/m2
01:32 47.1 °F 44.9 °F 30.54 in Calm     92 % 0.00 in 0 W/m2
01:33 47.1 °F 44.9 °F 30.54 in Calm     92 % 0.00 in 0 W/m2
01:36 47.1 °F 44.9 °F 30.54 in Calm     92 % 0.00 in 0 W/m2
01:38 47.1 °F 44.9 °F 30.54 in Calm     92 % 0.00 in 0 W/m2
01:43 47.1 °F 45.2 °F 30.54 in Calm     93 % 0.00 in 0 W/m2
01:44 47.1 °F 45.2 °F 30.54 in Calm     93 % 0.00 in 0 W/m2
01:49 47.1 °F 45.2 °F 30.54 in Calm     93 % 0.00 in 0 W/m2
01:53 47.1 °F 45.2 °F 30.54 in Calm     93 % 0.00 in 0 W/m2
01:54 47.1 °F 45.2 °F 30.54 in Calm     93 % 0.00 in 0 W/m2
01:58 46.9 °F 45.0 °F 30.54 in Calm     93 % 0.00 in 0 W/m2
02:00 46.9 °F 45.0 °F 30.54 in Calm     93 % 0.00 in 0 W/m2
02:05 46.9 °F 45.0 °F 30.54 in Calm     93 % 0.00 in 0 W/m2
02:10 46.8 °F 44.8 °F 30.54 in Calm   1.0 mph 93 % 0.00 in 0 W/m2
02:11 46.8 °F 44.8 °F 30.54 in Calm   1.0 mph 93 % 0.00 in 0 W/m2
02:12 46.8 °F 44.8 °F 30.54 in Calm   1.0 mph 93 % 0.00 in 0 W/m2
02:17 46.8 °F 44.8 °F 30.54 in Calm     93 % 0.00 in 0 W/m2
02:18 46.8 °F 44.8 °F 30.54 in Calm     93 % 0.00 in 0 W/m2
02:23 46.6 °F 44.7 °F 30.53 in Calm     93 % 0.00 in 0 W/m2
02:28 46.6 °F 44.7 °F 30.53 in Calm     93 % 0.00 in 0 W/m2
02:32 46.6 °F 44.7 °F 30.53 in Calm     93 % 0.00 in 0 W/m2
02:33 46.6 °F 44.7 °F 30.53 in Calm     93 % 0.00 in 0 W/m2
02:38 46.6 °F 44.9 °F 30.53 in Calm     94 % 0.00 in 0 W/m2
02:39 46.6 °F 44.9 °F 30.53 in Calm     94 % 0.00 in 0 W/m2
02:44 46.6 °F 44.9 °F 30.53 in Calm     94 % 0.00 in 0 W/m2
02:49 46.8 °F 45.1 °F 30.53 in Calm     94 % 0.00 in 0 W/m2
02:52 46.8 °F 45.1 °F 30.53 in Calm     94 % 0.00 in 0 W/m2
02:56 46.8 °F 45.1 °F 30.53 in Calm     94 % 0.00 in 0 W/m2
03:01 46.6 °F 44.9 °F 30.53 in Calm     94 % 0.00 in 0 W/m2
03:02 46.6 °F 44.9 °F 30.53 in Calm     94 % 0.00 in 0 W/m2
03:07 46.6 °F 44.9 °F 30.52 in Calm     94 % 0.00 in 0 W/m2
03:13 46.6 °F 44.9 °F 30.52 in Calm     94 % 0.00 in 0 W/m2
03:18 46.8 °F 45.1 °F 30.52 in North 2.0 mph 2.0 mph 94 % 0.00 in 0 W/m2
03:22 46.8 °F 45.1 °F 30.53 in North 1.0 mph 2.0 mph 94 % 0.00 in 0 W/m2
03:23 46.8 °F 45.1 °F 30.53 in North 1.0 mph 2.0 mph 94 % 0.00 in 0 W/m2
03:28 46.9 °F 45.6 °F 30.53 in Calm   1.0 mph 95 % 0.00 in 0 W/m2
03:32 46.9 °F 45.6 °F 30.52 in Calm     95 % 0.00 in 0 W/m2
03:37 46.9 °F 45.6 °F 30.52 in Calm     95 % 0.00 in 0 W/m2
03:39 46.9 °F 45.6 °F 30.52 in Calm     95 % 0.00 in 0 W/m2
03:42 46.9 °F 45.3 °F 30.52 in Calm     94 % 0.00 in 0 W/m2
03:47 46.8 °F 45.1 °F 30.52 in Calm     94 % 0.00 in 0 W/m2
03:52 46.8 °F 45.1 °F 30.52 in Calm     94 % 0.00 in 0 W/m2
03:53 46.8 °F 45.1 °F 30.52 in Calm     94 % 0.00 in 0 W/m2
03:58 46.6 °F 44.9 °F 30.52 in Calm     94 % 0.00 in 0 W/m2
04:00 46.6 °F 44.9 °F 30.52 in Calm     94 % 0.00 in 0 W/m2
04:05 46.6 °F 44.9 °F 30.52 in Calm     94 % 0.00 in 0 W/m2
04:07 46.4 °F 44.8 °F 30.52 in Calm     94 % 0.00 in 0 W/m2
04:10 46.2 °F 44.6 °F 30.51 in Calm     94 % 0.00 in 0 W/m2
04:14 46.2 °F 44.6 °F 30.52 in Calm     94 % 0.00 in 0 W/m2
04:19 46.2 °F 44.9 °F 30.51 in Calm     95 % 0.00 in 0 W/m2
04:24 46.2 °F 44.9 °F 30.52 in Calm     95 % 0.00 in 0 W/m2
04:26 46.2 °F 44.9 °F 30.52 in Calm     95 % 0.00 in 0 W/m2
04:29 46.2 °F 44.9 °F 30.51 in Calm     95 % 0.00 in 0 W/m2
04:34 46.2 °F 44.9 °F 30.51 in Calm     95 % 0.00 in 0 W/m2
04:35 46.2 °F 44.9 °F 30.52 in Calm     95 % 0.00 in 0 W/m2
04:40 46.0 °F 44.7 °F 30.51 in Calm     95 % 0.00 in 0 W/m2
04:42 46.0 °F 44.7 °F 30.51 in Calm     95 % 0.00 in 0 W/m2
04:43 46.0 °F 44.7 °F 30.51 in Calm     95 % 0.00 in 0 W/m2
04:48 46.0 °F 44.7 °F 30.52 in Calm     95 % 0.00 in 0 W/m2
04:49 46.0 °F 44.7 °F 30.52 in Calm     95 % 0.00 in 0 W/m2
04:55 46.0 °F 44.7 °F 30.52 in WNW 2.0 mph 4.0 mph 95 % 0.00 in 0 W/m2
04:56 46.0 °F 44.7 °F 30.52 in West 2.0 mph 4.0 mph 95 % 0.00 in 0 W/m2
05:01 45.9 °F 44.5 °F 30.52 in Calm     95 % 0.00 in 0 W/m2
05:02 45.9 °F 44.5 °F 30.52 in Calm     95 % 0.00 in 0 W/m2
05:05 45.9 °F 44.5 °F 30.52 in Calm   2.0 mph 95 % 0.00 in 0 W/m2
05:08 45.9 °F 44.5 °F 30.52 in West 1.0 mph 4.0 mph 95 % 0.00 in 0 W/m2
05:13 46.0 °F 44.7 °F 30.53 in NNW 4.0 mph 6.0 mph 95 % 0.00 in 0 W/m2
05:16 46.0 °F 45.0 °F 30.53 in NNW 2.0 mph 4.0 mph 96 % 0.00 in 0 W/m2
05:19 46.2 °F 45.1 °F 30.52 in Calm     96 % 0.00 in 0 W/m2
05:24 46.2 °F 44.9 °F 30.53 in Calm     95 % 0.00 in 0 W/m2
05:25 46.2 °F 44.9 °F 30.53 in Calm     95 % 0.00 in 0 W/m2
05:28 46.0 °F 44.7 °F 30.53 in Calm     95 % 0.00 in 0 W/m2
05:33 46.0 °F 44.7 °F 30.53 in Calm     95 % 0.00 in 0 W/m2
05:36 45.9 °F 44.5 °F 30.53 in Calm     95 % 0.00 in 0 W/m2
05:41 45.9 °F 44.5 °F 30.53 in Calm     95 % 0.00 in 0 W/m2
05:45 45.9 °F 44.5 °F 30.53 in Calm     95 % 0.00 in 0 W/m2
05:47 45.7 °F 44.3 °F 30.53 in Calm     95 % 0.00 in 0 W/m2
05:52 45.7 °F 44.3 °F 30.53 in Calm     95 % 0.00 in 0 W/m2
05:53 45.7 °F 44.3 °F 30.53 in Calm     95 % 0.00 in 0 W/m2
05:58 45.7 °F 44.3 °F 30.53 in Calm     95 % 0.00 in 0 W/m2
05:59 45.7 °F 44.3 °F 30.53 in Calm     95 % 0.00 in 0 W/m2
06:03 45.7 °F 44.3 °F 30.53 in Calm     95 % 0.00 in 0 W/m2
06:04 45.7 °F 44.3 °F 30.53 in Calm     95 % 0.00 in 0 W/m2
06:06 45.7 °F 44.3 °F 30.53 in Calm     95 % 0.00 in 0 W/m2
06:11 45.7 °F 44.3 °F 30.53 in Calm     95 % 0.00 in 0 W/m2
06:13 45.7 °F 44.3 °F 30.53 in Calm     95 % 0.00 in 0 W/m2
06:15 45.7 °F 44.3 °F 30.53 in Calm     95 % 0.00 in 0 W/m2
06:18 45.7 °F 44.3 °F 30.52 in Calm     95 % 0.01 in 0 W/m2
06:23 45.7 °F 44.6 °F 30.52 in Calm     96 % 0.01 in 0 W/m2
06:26 45.7 °F 44.6 °F 30.52 in Calm     96 % 0.01 in 0 W/m2
06:31 45.7 °F 44.6 °F 30.52 in Calm     96 % 0.01 in 0 W/m2
06:32 45.7 °F 44.6 °F 30.52 in Calm     96 % 0.01 in 0 W/m2
06:37 45.9 °F 44.8 °F 30.53 in Calm     96 % 0.01 in 0 W/m2
06:39 45.7 °F 44.6 °F 30.53 in Calm     96 % 0.01 in 0 W/m2
06:44 45.9 °F 44.8 °F 30.53 in Calm     96 % 0.01 in 0 W/m2
06:46 45.9 °F 44.8 °F 30.52 in Calm     96 % 0.01 in 0 W/m2
06:51 45.9 °F 44.8 °F 30.52 in Calm     96 % 0.01 in 0 W/m2
06:52 45.9 °F 44.8 °F 30.52 in Calm     96 % 0.01 in 0 W/m2
06:54 45.9 °F 44.8 °F 30.52 in Calm     96 % 0.01 in 0 W/m2
06:58 45.9 °F 44.8 °F 30.53 in Calm     96 % 0.01 in 0 W/m2
07:02 45.9 °F 44.8 °F 30.53 in Calm     96 % 0.01 in 0 W/m2
07:03 45.9 °F 44.8 °F 30.52 in Calm     96 % 0.01 in 0 W/m2
07:08 45.9 °F 44.8 °F 30.52 in Calm     96 % 0.01 in 0 W/m2
07:11 45.9 °F 44.8 °F 30.52 in Calm     96 % 0.01 in 0 W/m2
07:15 45.9 °F 44.8 °F 30.52 in Calm     96 % 0.00 in 0 W/m2
07:20 45.9 °F 44.8 °F 30.52 in Calm     96 % 0.00 in 0 W/m2
07:23 46.0 °F 45.0 °F 30.52 in Calm     96 % 0.00 in 0 W/m2
07:26 46.0 °F 45.0 °F 30.52 in Calm     96 % 0.00 in 0 W/m2
07:31 46.0 °F 45.0 °F 30.52 in Calm     96 % 0.00 in 0 W/m2
07:32 46.0 °F 45.0 °F 30.52 in Calm     96 % 0.00 in 0 W/m2
07:37 46.0 °F 45.0 °F 30.52 in Calm     96 % 0.00 in 0 W/m2
07:39 45.9 °F 44.8 °F 30.52 in Calm     96 % 0.00 in 0 W/m2
07:44 45.9 °F 44.8 °F 30.52 in Calm     96 % 0.00 in 0 W/m2
07:50 45.9 °F 44.8 °F 30.52 in Calm     96 % 0.00 in 0 W/m2
07:51 45.9 °F 44.8 °F 30.52 in Calm     96 % 0.00 in 0 W/m2
07:55 45.9 °F 44.8 °F 30.52 in Calm     96 % 0.00 in 0 W/m2
08:00 45.9 °F 44.8 °F 30.52 in Calm     96 % 0.00 in 0 W/m2
08:04 46.0 °F 45.0 °F 30.52 in Calm     96 % 0.00 in 0 W/m2
08:09 46.0 °F 45.0 °F 30.52 in Calm     96 % 0.00 in 0 W/m2
08:12 46.0 °F 45.0 °F 30.52 in Calm     96 % 0.00 in 0 W/m2
08:17 46.2 °F 45.1 °F 30.52 in Calm     96 % 0.00 in 0 W/m2
08:22 46.2 °F 45.1 °F 30.52 in Calm     96 % 0.00 in 0 W/m2
08:24 46.2 °F 45.1 °F 30.52 in Calm     96 % 0.00 in 0 W/m2
08:29 46.2 °F 45.1 °F 30.52 in Calm     96 % 0.00 in 0 W/m2
08:34 46.2 °F 45.1 °F 30.52 in Calm     96 % 0.00 in 0 W/m2
08:35 46.2 °F 45.1 °F 30.52 in Calm     96 % 0.00 in 0 W/m2
08:40 46.2 °F 45.1 °F 30.52 in Calm     96 % 0.00 in 5 W/m2
08:42 46.2 °F 45.1 °F 30.52 in Calm     96 % 0.00 in 5 W/m2
09:47 46.9 °F 46.1 °F 30.52 in Calm     97 % 0.00 in 23 W/m2
09:50 46.9 °F 46.1 °F 30.52 in Calm     97 % 0.00 in 23 W/m2
09:55 47.1 °F 46.3 °F 30.52 in Calm     97 % 0.00 in 30 W/m2
09:57 47.1 °F 46.3 °F 30.52 in Calm     97 % 0.00 in 28 W/m2
10:02 47.3 °F 46.5 °F 30.53 in Calm     97 % 0.00 in 28 W/m2
10:03 47.3 °F 46.5 °F 30.53 in Calm     97 % 0.00 in 28 W/m2
10:07 47.3 °F 46.5 °F 30.53 in Calm     97 % 0.00 in 33 W/m2
10:10 47.3 °F 46.5 °F 30.53 in Calm     97 % 0.00 in 33 W/m2
10:15 47.1 °F 46.3 °F 30.53 in Calm     97 % 0.00 in 33 W/m2
10:18 47.3 °F 46.5 °F 30.53 in Calm     97 % 0.00 in 33 W/m2
10:23 47.3 °F 46.5 °F 30.53 in Calm     97 % 0.00 in 35 W/m2
10:27 47.3 °F 46.5 °F 30.53 in Calm     97 % 0.00 in 42 W/m2
10:28 47.5 °F 46.7 °F 30.53 in Calm     97 % 0.00 in 42 W/m2
10:31 47.5 °F 46.7 °F 30.53 in Calm     97 % 0.00 in 40 W/m2
10:32 47.5 °F 46.7 °F 30.53 in Calm     97 % 0.00 in 40 W/m2
10:36 47.5 °F 46.7 °F 30.53 in Calm     97 % 0.00 in 39 W/m2
10:39 47.5 °F 46.7 °F 30.53 in Calm     97 % 0.00 in 33 W/m2
10:44 47.7 °F 46.9 °F 30.52 in Calm     97 % 0.00 in 32 W/m2
10:45 47.7 °F 46.9 °F 30.52 in Calm     97 % 0.00 in 30 W/m2
10:50 47.7 °F 46.9 °F 30.52 in Calm   2.0 mph 97 % 0.00 in 32 W/m2
10:51 47.7 °F 46.9 °F 30.52 in Calm   2.0 mph 97 % 0.00 in 33 W/m2
10:54 47.8 °F 47.0 °F 30.52 in Calm     97 % 0.00 in 37 W/m2
10:56 47.8 °F 47.0 °F 30.52 in Calm     97 % 0.00 in 39 W/m2
11:01 47.8 °F 47.0 °F 30.52 in Calm     97 % 0.00 in 44 W/m2
11:06 47.8 °F 47.0 °F 30.52 in Calm     97 % 0.00 in 46 W/m2
11:11 47.8 °F 47.0 °F 30.51 in Calm     97 % 0.00 in 62 W/m2
11:16 47.8 °F 47.0 °F 30.51 in Calm     97 % 0.00 in 63 W/m2
11:18 47.8 °F 47.0 °F 30.51 in Calm     97 % 0.00 in 60 W/m2
11:20 47.8 °F 47.0 °F 30.51 in Calm     97 % 0.00 in 58 W/m2
11:25 47.8 °F 47.0 °F 30.51 in Calm     97 % 0.00 in 54 W/m2
11:30 48.0 °F 47.2 °F 30.51 in Calm     97 % 0.00 in 53 W/m2
11:36 48.0 °F 47.2 °F 30.51 in Calm     97 % 0.00 in 63 W/m2
11:41 48.2 °F 47.4 °F 30.51 in Calm     97 % 0.00 in 63 W/m2
11:42 48.2 °F 47.4 °F 30.51 in Calm     97 % 0.00 in 60 W/m2
11:47 48.2 °F 47.4 °F 30.51 in Calm     97 % 0.00 in 53 W/m2
11:48 48.2 °F 47.4 °F 30.51 in Calm     97 % 0.00 in 54 W/m2
11:49 48.2 °F 47.4 °F 30.51 in Calm     97 % 0.00 in 56 W/m2
11:54 48.2 °F 47.4 °F 30.51 in Calm     97 % 0.00 in 37 W/m2
11:57 48.2 °F 47.1 °F 30.51 in Calm     96 % 0.00 in 37 W/m2
12:02 48.2 °F 47.1 °F 30.51 in Calm     96 % 0.00 in 37 W/m2
12:03 48.2 °F 47.1 °F 30.51 in Calm     96 % 0.00 in 37 W/m2
12:07 48.2 °F 47.4 °F 30.51 in Calm     97 % 0.00 in 42 W/m2
12:12 48.4 °F 47.6 °F 30.51 in Calm     97 % 0.00 in 54 W/m2
12:14 48.4 °F 47.6 °F 30.50 in Calm     97 % 0.00 in 60 W/m2
12:19 48.4 °F 47.6 °F 30.50 in Calm     97 % 0.00 in 65 W/m2
12:21 48.6 °F 47.7 °F 30.50 in Calm     97 % 0.00 in 69 W/m2
12:26 48.6 °F 47.7 °F 30.50 in Calm     97 % 0.00 in 63 W/m2
12:27 48.6 °F 47.7 °F 30.50 in Calm     97 % 0.00 in 62 W/m2
12:32 48.7 °F 47.9 °F 30.50 in Calm     97 % 0.00 in 58 W/m2
12:34 48.7 °F 47.9 °F 30.50 in Calm     97 % 0.00 in 53 W/m2
12:39 48.7 °F 47.9 °F 30.50 in Calm     97 % 0.00 in 49 W/m2
12:44 48.7 °F 47.9 °F 30.50 in Calm     97 % 0.00 in 35 W/m2
12:47 48.7 °F 47.9 °F 30.50 in Calm     97 % 0.00 in 40 W/m2
12:51 48.7 °F 47.9 °F 30.50 in Calm     97 % 0.00 in 46 W/m2
12:53 48.7 °F 47.9 °F 30.50 in Calm     97 % 0.00 in 44 W/m2
12:58 48.7 °F 47.9 °F 30.50 in Calm     97 % 0.00 in 49 W/m2
12:59 48.7 °F 47.9 °F 30.50 in Calm     97 % 0.00 in 51 W/m2
13:04 48.9 °F 48.1 °F 30.50 in Calm     97 % 0.00 in 44 W/m2
13:05 48.9 °F 48.1 °F 30.50 in Calm     97 % 0.00 in 44 W/m2
13:08 48.9 °F 48.1 °F 30.50 in Calm     97 % 0.00 in 42 W/m2
13:13 48.9 °F 48.1 °F 30.50 in Calm     97 % 0.00 in 42 W/m2
13:14 48.9 °F 48.1 °F 30.50 in Calm     97 % 0.00 in 42 W/m2
13:15 48.9 °F 48.1 °F 30.49 in Calm     97 % 0.00 in 44 W/m2
13:20 48.9 °F 48.1 °F 30.49 in Calm     97 % 0.00 in 42 W/m2
13:21 48.9 °F 48.1 °F 30.49 in Calm     97 % 0.00 in 44 W/m2
13:26 48.9 °F 48.1 °F 30.49 in Calm     97 % 0.00 in 46 W/m2
13:28 49.1 °F 48.3 °F 30.49 in Calm     97 % 0.00 in 46 W/m2
13:33 49.1 °F 48.3 °F 30.49 in Calm     97 % 0.00 in 42 W/m2
13:38 49.1 °F 48.3 °F 30.49 in Calm     97 % 0.00 in 47 W/m2
13:42 49.3 °F 48.5 °F 30.49 in Calm     97 % 0.00 in 47 W/m2
13:43 49.3 °F 48.5 °F 30.49 in Calm     97 % 0.00 in 47 W/m2
13:52 49.3 °F 48.2 °F 30.49 in Calm     96 % 0.00 in 40 W/m2
13:55 49.3 °F 48.2 °F 30.49 in Calm     96 % 0.00 in 39 W/m2
14:00 49.3 °F 48.2 °F 30.49 in Calm     96 % 0.00 in 35 W/m2
14:05 49.3 °F 48.5 °F 30.49 in Calm     97 % 0.00 in 30 W/m2
14:07 49.3 °F 48.2 °F 30.49 in Calm     96 % 0.00 in 28 W/m2
14:12 49.3 °F 48.2 °F 30.49 in Calm     96 % 0.00 in 26 W/m2
14:17 49.3 °F 48.2 °F 30.49 in Calm     96 % 0.00 in 26 W/m2
14:18 49.3 °F 48.2 °F 30.49 in Calm     96 % 0.00 in 25 W/m2
14:23 49.3 °F 48.2 °F 30.49 in Calm     96 % 0.00 in 23 W/m2
14:24 49.3 °F 48.2 °F 30.49 in Calm     96 % 0.00 in 23 W/m2
14:29 49.3 °F 48.2 °F 30.48 in Calm     96 % 0.00 in 21 W/m2
14:30 49.3 °F 48.2 °F 30.48 in Calm     96 % 0.00 in 21 W/m2
14:35 49.3 °F 48.2 °F 30.49 in Calm     96 % 0.00 in 21 W/m2
14:40 49.3 °F 48.2 °F 30.49 in Calm     96 % 0.00 in 21 W/m2
14:41 49.5 °F 48.4 °F 30.49 in Calm     96 % 0.00 in 21 W/m2
14:46 49.5 °F 48.4 °F 30.49 in Calm   1.0 mph 96 % 0.00 in 21 W/m2
14:55 49.6 °F 48.8 °F 30.49 in Calm   2.0 mph 97 % 0.00 in 19 W/m2
14:57 49.6 °F 48.8 °F 30.49 in Calm     97 % 0.00 in 18 W/m2
15:02 49.6 °F 48.8 °F 30.49 in NNE 1.0 mph 4.0 mph 97 % 0.00 in 16 W/m2
15:07 49.8 °F 49.0 °F 30.49 in Calm   1.0 mph 97 % 0.00 in 16 W/m2
15:12 49.8 °F 49.0 °F 30.49 in West 1.0 mph 2.0 mph 97 % 0.00 in 12 W/m2
15:13 49.8 °F 49.0 °F 30.49 in West 1.0 mph 2.0 mph 97 % 0.00 in 12 W/m2
15:19 49.8 °F 48.7 °F 30.49 in WSW 1.0 mph 6.0 mph 96 % 0.00 in 9 W/m2
15:24 49.8 °F 48.7 °F 30.48 in Calm   2.0 mph 96 % 0.00 in 7 W/m2
15:27 49.8 °F 48.7 °F 30.48 in West 1.0 mph 5.0 mph 96 % 0.00 in 5 W/m2
15:29 49.8 °F 48.7 °F 30.48 in West 1.0 mph 5.0 mph 96 % 0.00 in 5 W/m2
15:34 49.8 °F 48.7 °F 30.48 in West 1.0 mph 2.0 mph 96 % 0.00 in 0 W/m2
15:35 49.8 °F 48.7 °F 30.48 in West 1.0 mph 2.0 mph 96 % 0.00 in 0 W/m2
15:40 49.8 °F 48.7 °F 30.48 in West 1.0 mph 4.0 mph 96 % 0.00 in 0 W/m2
15:43 50.0 °F 48.9 °F 30.48 in West 1.0 mph 3.0 mph 96 % 0.00 in 0 W/m2
15:48 50.0 °F 49.2 °F 30.48 in West 4.0 mph 5.0 mph 97 % 0.00 in 0 W/m2
15:50 50.2 °F 49.4 °F 30.48 in West 4.0 mph 5.0 mph 97 % 0.00 in 0 W/m2
15:54 50.2 °F 49.4 °F 30.48 in West 4.0 mph 6.0 mph 97 % 0.00 in 0 W/m2
15:59 50.4 °F 49.3 °F 30.48 in West 6.0 mph 8.0 mph 96 % 0.00 in 0 W/m2
16:04 50.5 °F 49.4 °F 30.48 in West 7.0 mph 12.0 mph 96 % 0.00 in 0 W/m2
16:05 50.5 °F 49.4 °F 30.48 in West 7.0 mph 12.0 mph 96 % 0.00 in 0 W/m2
16:06 50.5 °F 49.4 °F 30.48 in West 6.0 mph 10.0 mph 96 % 0.00 in 0 W/m2
16:11 50.5 °F 49.4 °F 30.48 in West 6.0 mph 10.0 mph 96 % 0.00 in 0 W/m2
16:12 50.5 °F 49.4 °F 30.48 in West 6.0 mph 10.0 mph 96 % 0.00 in 0 W/m2
16:17 50.5 °F 49.4 °F 30.48 in WSW 6.0 mph 9.0 mph 96 % 0.00 in 0 W/m2
16:18 50.5 °F 49.4 °F 30.48 in WSW 7.0 mph 9.0 mph 96 % 0.00 in 0 W/m2
16:20 50.5 °F 49.4 °F 30.48 in West 6.0 mph 9.0 mph 96 % 0.00 in 0 W/m2
16:23 50.5 °F 49.4 °F 30.48 in West 6.0 mph 9.0 mph 96 % 0.00 in 0 W/m2
16:28 50.7 °F 49.3 °F 30.48 in West 8.0 mph 12.0 mph 95 % 0.00 in 0 W/m2
16:29 50.7 °F 49.3 °F 30.48 in West 7.0 mph 11.0 mph 95 % 0.00 in 0 W/m2
16:34 50.7 °F 49.3 °F 30.48 in West 6.0 mph 9.0 mph 95 % 0.00 in 0 W/m2
16:38 50.7 °F 49.3 °F 30.48 in West 6.0 mph 10.0 mph 95 % 0.00 in 0 W/m2
16:42 50.7 °F 49.3 °F 30.48 in West 6.0 mph 10.0 mph 95 % 0.00 in 0 W/m2
16:45 50.7 °F 49.3 °F 30.48 in West 6.0 mph 10.0 mph 95 % 0.00 in 0 W/m2
16:50 50.7 °F 49.3 °F 30.48 in West 7.0 mph 9.0 mph 95 % 0.00 in 0 W/m2
16:52 50.7 °F 49.3 °F 30.48 in West 7.0 mph 10.0 mph 95 % 0.00 in 0 W/m2
16:56 50.9 °F 49.5 °F 30.48 in West 6.0 mph 8.0 mph 95 % 0.00 in 0 W/m2
17:01 50.9 °F 49.5 °F 30.48 in West 7.0 mph 11.0 mph 95 % 0.00 in 0 W/m2
17:06 50.9 °F 49.2 °F 30.48 in West 6.0 mph 11.0 mph 94 % 0.00 in 0 W/m2
17:09 50.9 °F 49.2 °F 30.49 in West 6.0 mph 9.0 mph 94 % 0.00 in 0 W/m2
17:13 50.9 °F 49.2 °F 30.48 in West 6.0 mph 8.0 mph 94 % 0.00 in 0 W/m2
17:18 50.9 °F 49.2 °F 30.49 in West 6.0 mph 10.0 mph 94 % 0.00 in 0 W/m2
17:21 50.9 °F 49.2 °F 30.48 in West 7.0 mph 12.0 mph 94 % 0.00 in 0 W/m2
17:23 50.9 °F 49.2 °F 30.49 in West 7.0 mph 12.0 mph 94 % 0.00 in 0 W/m2
17:28 50.9 °F 49.2 °F 30.49 in West 5.0 mph 9.0 mph 94 % 0.00 in 0 W/m2
17:30 50.9 °F 49.2 °F 30.49 in West 6.0 mph 8.0 mph 94 % 0.00 in 0 W/m2
17:33 50.9 °F 49.2 °F 30.49 in West 4.0 mph 6.0 mph 94 % 0.00 in 0 W/m2
17:38 50.7 °F 49.1 °F 30.49 in West 4.0 mph 9.0 mph 94 % 0.00 in 0 W/m2
17:39 50.7 °F 49.1 °F 30.48 in West 4.0 mph 9.0 mph 94 % 0.00 in 0 W/m2
17:40 50.7 °F 49.1 °F 30.48 in West 6.0 mph 10.0 mph 94 % 0.00 in 0 W/m2
17:44 50.7 °F 49.1 °F 30.48 in West 4.0 mph 8.0 mph 94 % 0.00 in 0 W/m2
17:49 50.7 °F 49.1 °F 30.48 in West 2.0 mph 6.0 mph 94 % 0.00 in 0 W/m2
17:50 50.7 °F 49.1 °F 30.48 in West 1.0 mph 2.0 mph 94 % 0.00 in 0 W/m2
17:55 50.5 °F 48.9 °F 30.48 in WNW 3.0 mph 6.0 mph 94 % 0.00 in 0 W/m2
17:56 50.5 °F 48.9 °F 30.48 in WNW 3.0 mph 6.0 mph 94 % 0.00 in 0 W/m2
17:57 50.5 °F 48.9 °F 30.48 in West 3.0 mph 7.0 mph 94 % 0.00 in 0 W/m2
18:02 50.5 °F 48.9 °F 30.49 in WNW 3.0 mph 6.0 mph 94 % 0.00 in 0 W/m2
18:03 50.5 °F 48.9 °F 30.49 in WNW 3.0 mph 6.0 mph 94 % 0.00 in 0 W/m2
18:06 50.5 °F 48.9 °F 30.49 in West 5.0 mph 7.0 mph 94 % 0.00 in 0 W/m2
18:09 50.5 °F 48.9 °F 30.49 in West 5.0 mph 8.0 mph 94 % 0.00 in 0 W/m2
18:12 50.5 °F 48.9 °F 30.49 in West 5.0 mph 8.0 mph 94 % 0.00 in 0 W/m2
18:15 50.5 °F 48.9 °F 30.49 in West 6.0 mph 7.0 mph 94 % 0.00 in 0 W/m2
18:20 50.5 °F 48.9 °F 30.49 in West 4.0 mph 7.0 mph 94 % 0.00 in 0 W/m2
18:22 50.5 °F 48.9 °F 30.49 in West 5.0 mph 7.0 mph 94 % 0.00 in 0 W/m2
18:27 50.5 °F 48.9 °F 30.49 in West 5.0 mph 9.0 mph 94 % 0.00 in 0 W/m2
18:28 50.5 °F 48.9 °F 30.49 in West 6.0 mph 9.0 mph 94 % 0.00 in 0 W/m2
18:34 50.5 °F 48.9 °F 30.49 in West 5.0 mph 7.0 mph 94 % 0.00 in 0 W/m2
18:38 50.5 °F 48.9 °F 30.49 in West 8.0 mph 10.0 mph 94 % 0.00 in 0 W/m2
18:41 50.5 °F 48.9 °F 30.49 in West 6.0 mph 9.0 mph 94 % 0.00 in 0 W/m2
18:43 50.5 °F 48.9 °F 30.49 in WSW 6.0 mph 9.0 mph 94 % 0.00 in 0 W/m2
18:48 50.5 °F 48.9 °F 30.49 in WSW 5.0 mph 8.0 mph 94 % 0.00 in 0 W/m2
18:53 50.5 °F 48.9 °F 30.49 in WSW 6.0 mph 12.0 mph 94 % 0.00 in 0 W/m2
18:54 50.5 °F 48.9 °F 30.49 in WSW 6.0 mph 12.0 mph 94 % 0.00 in 0 W/m2
18:59 50.5 °F 48.9 °F 30.50 in West 3.0 mph 5.0 mph 94 % 0.00 in 0 W/m2
19:04 50.4 °F 48.4 °F 30.50 in West 3.0 mph 6.0 mph 93 % 0.00 in 0 W/m2
19:06 50.4 °F 48.4 °F 30.50 in West 3.0 mph 4.0 mph 93 % 0.00 in 0 W/m2
19:11 50.4 °F 48.4 °F 30.50 in WSW 4.0 mph 5.0 mph 93 % 0.00 in 0 W/m2
19:12 50.4 °F 48.4 °F 30.50 in WSW 3.0 mph 5.0 mph 93 % 0.00 in 0 W/m2
19:15 50.4 °F 48.4 °F 30.50 in West 4.0 mph 6.0 mph 93 % 0.00 in 0 W/m2
19:16 50.4 °F 48.4 °F 30.50 in West 4.0 mph 6.0 mph 93 % 0.00 in 0 W/m2
19:21 50.4 °F 48.7 °F 30.50 in West 5.0 mph 6.0 mph 94 % 0.00 in 0 W/m2
19:22 50.4 °F 48.7 °F 30.50 in West 5.0 mph 7.0 mph 94 % 0.00 in 0 W/m2
19:27 50.4 °F 48.7 °F 30.50 in WSW 6.0 mph 9.0 mph 94 % 0.00 in 0 W/m2
19:32 50.4 °F 48.7 °F 30.50 in WSW 5.0 mph 8.0 mph 94 % 0.00 in 0 W/m2
19:36 50.4 °F 48.7 °F 30.50 in WSW 6.0 mph 8.0 mph 94 % 0.00 in 0 W/m2
19:38 50.2 °F 48.5 °F 30.50 in WSW 7.0 mph 9.0 mph 94 % 0.00 in 0 W/m2
19:42 50.2 °F 48.5 °F 30.50 in WSW 4.0 mph 7.0 mph 94 % 0.00 in 0 W/m2
19:43 50.2 °F 48.5 °F 30.50 in WSW 5.0 mph 8.0 mph 94 % 0.00 in 0 W/m2
19:48 50.2 °F 48.5 °F 30.50 in SW 4.0 mph 6.0 mph 94 % 0.00 in 0 W/m2
19:53 50.2 °F 48.5 °F 30.50 in SW 5.0 mph 7.0 mph 94 % 0.00 in 0 W/m2
19:54 50.2 °F 48.2 °F 30.50 in SW 5.0 mph 7.0 mph 93 % 0.00 in 0 W/m2
19:59 50.2 °F 48.2 °F 30.50 in SW 5.0 mph 7.0 mph 93 % 0.00 in 0 W/m2
20:02 50.2 °F 48.5 °F 30.50 in SW 5.0 mph 8.0 mph 94 % 0.00 in 0 W/m2
20:04 50.2 °F 48.5 °F 30.50 in WSW 6.0 mph 8.0 mph 94 % 0.00 in 0 W/m2
20:07 50.2 °F 48.5 °F 30.50 in WSW 5.0 mph 7.0 mph 94 % 0.00 in 0 W/m2
20:10 50.2 °F 48.5 °F 30.50 in WSW 7.0 mph 10.0 mph 94 % 0.00 in 0 W/m2
20:14 50.2 °F 48.5 °F 30.50 in West 7.0 mph 10.0 mph 94 % 0.00 in 0 W/m2
20:19 50.4 °F 48.7 °F 30.50 in WSW 6.0 mph 8.0 mph 94 % 0.00 in 0 W/m2
20:22 50.4 °F 48.7 °F 30.50 in WSW 7.0 mph 10.0 mph 94 % 0.00 in 0 W/m2
20:26 50.4 °F 48.7 °F 30.50 in West 7.0 mph 10.0 mph 94 % 0.00 in 0 W/m2
20:28 50.4 °F 48.7 °F 30.50 in WSW 6.0 mph 8.0 mph 94 % 0.00 in 0 W/m2
20:33 50.4 °F 48.7 °F 30.50 in WSW 6.0 mph 10.0 mph 94 % 0.00 in 0 W/m2
20:34 50.4 °F 48.7 °F 30.50 in West 6.0 mph 10.0 mph 94 % 0.00 in 0 W/m2
20:44 50.4 °F 48.7 °F 30.50 in West 6.0 mph 9.0 mph 94 % 0.00 in 0 W/m2
20:45 50.4 °F 48.7 °F 30.50 in West 5.0 mph 8.0 mph 94 % 0.00 in 0 W/m2
20:49 50.4 °F 48.7 °F 30.50 in West 5.0 mph 8.0 mph 94 % 0.00 in 0 W/m2
20:54 50.4 °F 48.7 °F 30.50 in West 5.0 mph 8.0 mph 94 % 0.00 in 0 W/m2
20:57 50.4 °F 48.7 °F 30.50 in West 6.0 mph 10.0 mph 94 % 0.00 in 0 W/m2
21:02 50.4 °F 48.7 °F 30.50 in West 7.0 mph 10.0 mph 94 % 0.00 in 0 W/m2
21:04 50.4 °F 48.7 °F 30.50 in West 6.0 mph 9.0 mph 94 % 0.00 in 0 W/m2
21:09 50.2 °F 48.5 °F 30.50 in West 7.0 mph 11.0 mph 94 % 0.00 in 0 W/m2
21:11 50.2 °F 48.2 °F 30.50 in West 8.0 mph 11.0 mph 93 % 0.00 in 0 W/m2
21:17 50.2 °F 48.5 °F 30.50 in West 9.0 mph 13.0 mph 94 % 0.00 in 0 W/m2
21:20 50.2 °F 48.2 °F 30.50 in West 5.0 mph 9.0 mph 93 % 0.00 in 0 W/m2
21:21 50.2 °F 48.2 °F 30.50 in West 4.0 mph 7.0 mph 93 % 0.00 in 0 W/m2
21:26 50.0 °F 48.1 °F 30.50 in WNW 2.0 mph 5.0 mph 93 % 0.00 in 0 W/m2
21:27 50.2 °F 48.2 °F 30.50 in West 3.0 mph 6.0 mph 93 % 0.00 in 0 W/m2
21:32 49.8 °F 47.9 °F 30.50 in WNW 3.0 mph 5.0 mph 93 % 0.00 in 0 W/m2
21:33 49.8 °F 47.9 °F 30.50 in West 2.0 mph 5.0 mph 93 % 0.00 in 0 W/m2
21:36 49.8 °F 47.9 °F 30.50 in West 4.0 mph 8.0 mph 93 % 0.00 in 0 W/m2
21:40 49.8 °F 47.9 °F 30.50 in WSW 3.0 mph 6.0 mph 93 % 0.00 in 0 W/m2
21:45 49.8 °F 47.9 °F 30.50 in Calm     93 % 0.00 in 0 W/m2
21:46 49.8 °F 47.9 °F 30.50 in Calm     93 % 0.00 in 0 W/m2
21:51 49.6 °F 47.7 °F 30.50 in West 2.0 mph 5.0 mph 93 % 0.00 in 0 W/m2
21:52 49.6 °F 47.7 °F 30.50 in West 1.0 mph 5.0 mph 93 % 0.00 in 0 W/m2
21:57 49.6 °F 47.7 °F 30.50 in WNW 4.0 mph 5.0 mph 93 % 0.00 in 0 W/m2
22:02 49.6 °F 47.7 °F 30.50 in WNW 7.0 mph 8.0 mph 93 % 0.00 in 0 W/m2
22:04 49.6 °F 47.7 °F 30.50 in West 6.0 mph 8.0 mph 93 % 0.00 in 0 W/m2
22:09 49.6 °F 47.7 °F 30.50 in WNW 6.0 mph 8.0 mph 93 % 0.00 in 0 W/m2
22:11 49.6 °F 47.7 °F 30.50 in WNW 6.0 mph 8.0 mph 93 % 0.00 in 0 W/m2
22:15 49.6 °F 47.7 °F 30.50 in West 6.0 mph 10.0 mph 93 % 0.00 in 0 W/m2
22:16 49.6 °F 47.7 °F 30.50 in West 6.0 mph 9.0 mph 93 % 0.00 in 0 W/m2
22:21 49.6 °F 47.7 °F 30.50 in West 7.0 mph 10.0 mph 93 % 0.00 in 0 W/m2
22:26 49.6 °F 47.7 °F 30.50 in West 7.0 mph 10.0 mph 93 % 0.00 in 0 W/m2
22:27 49.6 °F 47.7 °F 30.50 in West 7.0 mph 10.0 mph 93 % 0.00 in 0 W/m2
22:32 49.6 °F 47.7 °F 30.50 in West 7.0 mph 12.0 mph 93 % 0.00 in 0 W/m2
22:33 49.6 °F 47.7 °F 30.50 in West 7.0 mph 12.0 mph 93 % 0.00 in 0 W/m2
22:38 49.6 °F 47.7 °F 30.50 in West 6.0 mph 10.0 mph 93 % 0.00 in 0 W/m2
22:39 49.6 °F 47.7 °F 30.50 in West 5.0 mph 7.0 mph 93 % 0.00 in 0 W/m2
22:44 49.5 °F 47.5 °F 30.50 in West 6.0 mph 8.0 mph 93 % 0.00 in 0 W/m2
22:46 49.5 °F 47.5 °F 30.50 in West 5.0 mph 8.0 mph 93 % 0.00 in 0 W/m2
22:50 49.3 °F 47.3 °F 30.50 in WNW 4.0 mph 8.0 mph 93 % 0.00 in 0 W/m2
22:55 49.3 °F 47.3 °F 30.50 in WNW 5.0 mph 8.0 mph 93 % 0.00 in 0 W/m2
22:58 49.1 °F 47.2 °F 30.50 in WNW 5.0 mph 7.0 mph 93 % 0.00 in 0 W/m2
23:03 48.9 °F 47.0 °F 30.50 in West 5.0 mph 7.0 mph 93 % 0.00 in 0 W/m2
23:06 48.9 °F 47.0 °F 30.50 in West 5.0 mph 7.0 mph 93 % 0.00 in 0 W/m2
23:09 48.9 °F 47.0 °F 30.50 in West 4.0 mph 7.0 mph 93 % 0.00 in 0 W/m2
23:14 48.9 °F 47.0 °F 30.50 in West 5.0 mph 9.0 mph 93 % 0.00 in 0 W/m2
23:19 48.9 °F 47.0 °F 30.50 in West 5.0 mph 7.0 mph 93 % 0.00 in 0 W/m2
23:20 48.7 °F 46.8 °F 30.50 in WNW 4.0 mph 7.0 mph 93 % 0.00 in 0 W/m2
23:21 48.7 °F 46.8 °F 30.50 in WNW 5.0 mph 10.0 mph 93 % 0.00 in 0 W/m2
23:26 48.7 °F 46.8 °F 30.49 in West 5.0 mph 10.0 mph 93 % 0.00 in 0 W/m2
23:27 48.7 °F 46.8 °F 30.49 in West 5.0 mph 10.0 mph 93 % 0.00 in 0 W/m2
23:32 48.7 °F 46.8 °F 30.49 in WNW 6.0 mph 8.0 mph 93 % 0.00 in 0 W/m2
23:36 48.7 °F 46.8 °F 30.49 in West 5.0 mph 11.0 mph 93 % 0.00 in 0 W/m2
23:41 48.7 °F 46.8 °F 30.49 in WNW 6.0 mph 8.0 mph 93 % 0.00 in 0 W/m2
23:46 48.7 °F 46.8 °F 30.49 in WNW 6.0 mph 7.0 mph 93 % 0.00 in 0 W/m2
23:48 48.7 °F 46.8 °F 30.49 in WNW 5.0 mph 8.0 mph 93 % 0.00 in 0 W/m2
23:53 48.6 °F 46.6 °F 30.49 in WNW 4.0 mph 7.0 mph 93 % 0.00 in 0 W/m2
23:58 48.6 °F 46.6 °F 30.49 in West 5.0 mph 7.0 mph 93 % 0.00 in 0 W/m2
Delerius-Weather
Compliments of Weather Underground - 3 mb

Data updates at regular intervals.